Time;durP1;ratioP1;P1;durP2;ratioP2;P2;SDS_P1;SDS_P2;PMS_P1;PMS_P2;Temp;Humidity;BMP_temperature;BMP_pressure;BME280_temperature;BME280_humidity;BME280_pressure;Samples;Min_cycle;Max_cycle;Signal;HPM_P1;HPM_P2
2022/03/29 00:04:24;;;;;;;22.05;17.38;;;;;;;15.01;38.29;99934.44;10368626;28;20140;-61
2022/03/29 00:09:26;;;;;;;21.58;16.38;;;;;;;15.25;39.50;99969.56;10356406;28;20147;-62
2022/03/29 00:14:27;;;;;;;20.90;16.77;;;;;;;15.15;39.93;99970.50;10361790;28;20491;-62
2022/03/29 00:19:29;;;;;;;21.67;16.83;;;;;;;15.09;39.83;99957.75;10359187;28;20105;-62
2022/03/29 00:24:31;;;;;;;24.20;18.00;;;;;;;14.97;40.05;99959.03;10352222;28;20190;-62
2022/03/29 00:29:32;;;;;;;22.58;17.02;;;;;;;14.95;40.83;99950.31;10354509;28;20501;-61
2022/03/29 00:34:37;;;;;;;25.20;16.60;;;;;;;14.91;41.08;99940.91;10358841;28;20053;-61
2022/03/29 00:39:39;;;;;;;21.08;16.60;;;;;;;14.85;41.55;99951.25;10354645;28;20544;-62
2022/03/29 00:44:40;;;;;;;20.05;17.55;;;;;;;14.62;42.81;99942.94;10357764;28;20447;-62
2022/03/29 00:49:42;;;;;;;22.02;17.23;;;;;;;14.74;42.92;99939.97;10354281;28;20200;-62
2022/03/29 00:54:44;;;;;;;24.85;18.80;;;;;;;14.71;43.20;99941.13;10354113;28;20052;-61
2022/03/29 00:59:46;;;;;;;25.55;19.98;;;;;;;14.65;43.54;99933.72;10355279;28;20054;-62
2022/03/29 01:04:47;;;;;;;24.83;19.30;;;;;;;14.60;43.92;99928.78;10353198;28;20050;-62
2022/03/29 01:09:49;;;;;;;25.58;20.90;;;;;;;14.58;43.78;99921.94;10353466;28;20140;-62
2022/03/29 01:14:52;;;;;;;24.90;18.88;;;;;;;14.57;44.38;99922.94;10351275;28;20049;-61
2022/03/29 01:19:55;;;;;;;23.63;19.98;;;;;;;14.46;44.55;99918.69;10350964;28;20053;-62
2022/03/29 01:24:57;;;;;;;24.23;20.10;;;;;;;14.10;44.74;99900.00;10352275;28;20136;-62
2022/03/29 01:29:59;;;;;;;24.08;19.90;;;;;;;13.67;46.72;99899.78;10351558;28;20450;-62
2022/03/29 01:35:03;;;;;;;23.75;19.40;;;;;;;13.41;47.70;99897.03;10349595;28;20153;-63
2022/03/29 01:40:09;;;;;;;24.27;21.13;;;;;;;13.40;47.57;99888.13;10350798;28;20131;-61
2022/03/29 01:45:11;;;;;;;25.58;20.95;;;;;;;13.24;48.75;99879.91;10345847;28;20046;-62
2022/03/29 01:50:13;;;;;;;27.23;20.67;;;;;;;12.81;49.52;99830.66;10352067;28;20132;-62
2022/03/29 01:55:17;;;;;;;24.15;21.20;;;;;;;12.96;49.77;99866.56;10349825;28;20045;-63
2022/03/29 02:00:31;;;;;;;26.88;20.90;;;;;;;12.79;50.55;99827.28;10349255;28;20305;-61
2022/03/29 02:05:33;;;;;;;26.67;20.77;;;;;;;13.40;49.59;99873.94;10350963;28;20034;-61
2022/03/29 02:10:34;;;;;;;26.77;21.80;;;;;;;13.66;49.26;99873.19;10351658;28;20219;-61
2022/03/29 02:15:38;;;;;;;26.77;22.25;;;;;;;13.72;49.26;99873.44;10349005;28;20494;-62
2022/03/29 02:20:40;;;;;;;30.02;22.60;;;;;;;13.78;48.92;99864.78;10348739;28;20056;-62
2022/03/29 02:25:42;;;;;;;27.60;21.67;;;;;;;13.80;48.79;99864.63;10350096;28;20072;-62
2022/03/29 02:30:43;;;;;;;29.27;22.83;;;;;;;13.76;48.94;99856.06;10352315;28;20117;-63
2022/03/29 02:35:45;;;;;;;27.35;22.23;;;;;;;13.68;49.50;99858.69;10348765;28;20056;-63
2022/03/29 02:40:48;;;;;;;27.33;21.60;;;;;;;13.64;49.68;99851.94;10350398;28;20117;-62
2022/03/29 02:45:49;;;;;;;30.15;23.17;;;;;;;13.58;49.94;99864.09;10348148;28;20269;-61
2022/03/29 02:50:51;;;;;;;29.20;23.25;;;;;;;13.56;49.88;99846.53;10346416;28;20084;-61
2022/03/29 02:55:53;;;;;;;24.05;20.98;;;;;;;13.59;50.20;99846.22;10347412;28;20128;-62
2022/03/29 03:00:54;;;;;;;25.92;22.65;;;;;;;13.60;50.21;99853.25;10346474;28;20132;-62
2022/03/29 03:05:56;;;;;;;26.80;22.08;;;;;;;13.47;50.46;99840.25;10347492;28;20150;-62
2022/03/29 03:10:57;;;;;;;34.13;23.60;;;;;;;13.46;50.72;99840.41;10349728;28;20053;-62
2022/03/29 03:15:58;;;;;;;28.83;22.45;;;;;;;13.38;51.07;99823.31;10347983;28;20137;-62
2022/03/29 03:21:00;;;;;;;25.80;21.73;;;;;;;13.42;51.02;99829.16;10345433;28;20056;-61
2022/03/29 03:26:01;;;;;;;30.77;24.13;;;;;;;13.32;51.39;99829.22;10350037;28;20064;-62
2022/03/29 03:31:03;;;;;;;30.60;24.98;;;;;;;13.25;51.63;99825.47;10349010;28;20077;-62
2022/03/29 03:36:05;;;;;;;32.50;24.27;;;;;;;13.20;51.98;99820.59;10348494;28;20062;-63
2022/03/29 03:41:06;;;;;;;32.08;22.92;;;;;;;13.15;51.95;99811.34;10344428;28;20184;-63
2022/03/29 03:46:08;;;;;;;27.90;23.17;;;;;;;13.13;52.68;99816.00;10357251;28;20132;-62
2022/03/29 03:51:09;;;;;;;27.08;22.40;;;;;;;13.07;52.73;99804.06;10371399;28;20049;-61
2022/03/29 03:56:11;;;;;;;27.40;22.63;;;;;;;13.04;52.33;99794.50;10365708;28;20555;-61
2022/03/29 04:01:12;;;;;;;28.08;23.02;;;;;;;12.99;52.59;99788.78;10381001;28;20062;-61
2022/03/29 04:06:14;;;;;;;27.67;21.92;;;;;;;13.03;51.86;99784.84;10369517;28;20052;-61
2022/03/29 04:11:15;;;;;;;27.67;23.67;;;;;;;12.97;52.88;99785.44;10356005;28;20045;-61
2022/03/29 04:16:17;;;;;;;28.25;22.90;;;;;;;12.87;52.70;99771.31;10352108;28;20148;-61
2022/03/29 04:21:19;;;;;;;29.27;20.88;;;;;;;12.83;52.71;99759.22;10362223;28;20140;-61
2022/03/29 04:26:20;;;;;;;26.45;22.17;;;;;;;12.81;52.61;99762.06;10364881;28;20160;-62
2022/03/29 04:31:22;;;;;;;26.45;21.70;;;;;;;12.83;52.78;99765.41;10351236;28;20049;-61
2022/03/29 04:36:24;;;;;;;32.28;23.30;;;;;;;12.86;53.24;99770.44;10351995;28;20247;-62
2022/03/29 04:41:26;;;;;;;26.98;21.60;;;;;;;12.82;53.29;99757.53;10349399;28;20041;-61
2022/03/29 04:46:31;;;;;;;26.77;22.55;;;;;;;12.80;52.81;99746.19;10348714;28;20056;-62
2022/03/29 04:51:34;;;;;;;26.83;22.23;;;;;;;12.75;52.59;99751.16;10343514;28;20722;-62
2022/03/29 04:56:36;;;;;;;30.42;21.80;;;;;;;12.68;52.33;99751.72;10327615;28;20060;-62
2022/03/29 05:01:39;;;;;;;24.23;19.17;;;;;;;12.66;51.77;99743.03;10330244;28;20601;-62
2022/03/29 05:06:41;;;;;;;21.60;19.30;;;;;;;12.63;51.77;99746.00;10338994;28;20106;-62
2022/03/29 05:11:42;;;;;;;23.60;18.58;;;;;;;12.56;52.11;99736.91;10332873;28;20124;-63
2022/03/29 05:16:44;;;;;;;26.02;20.10;;;;;;;12.53;51.95;99738.03;10346907;28;20368;-62
2022/03/29 05:21:45;;;;;;;26.63;18.88;;;;;;;12.43;52.31;99741.75;10342259;28;20046;-63
2022/03/29 05:26:46;;;;;;;25.30;19.48;;;;;;;12.40;52.36;99747.38;10338246;28;20068;-62
2022/03/29 05:31:48;;;;;;;26.50;19.13;;;;;;;12.36;52.53;99745.00;10342987;28;20925;-63
2022/03/29 05:36:50;;;;;;;25.33;18.35;;;;;;;12.28;53.25;99734.25;10338401;28;20061;-63
2022/03/29 05:41:51;;;;;;;27.17;20.98;;;;;;;12.18;53.95;99736.09;10340175;28;20415;-62
2022/03/29 05:52:13;;;;;;;27.00;19.48;;;;;;;12.20;54.15;99742.13;10339299;28;20523;-61
2022/03/29 05:57:16;;;;;;;25.85;19.75;;;;;;;12.29;53.82;99746.56;10337045;28;20198;-62
2022/03/29 06:02:18;;;;;;;24.08;19.65;;;;;;;12.10;54.10;99720.84;10340559;28;20049;-63
2022/03/29 06:07:20;;;;;;;28.45;21.73;;;;;;;12.49;54.45;99752.69;10341488;28;20057;-63
2022/03/29 06:12:22;;;;;;;28.35;22.98;;;;;;;12.52;54.14;99746.19;10341466;28;20220;-63
2022/03/29 06:17:24;;;;;;;27.83;21.27;;;;;;;12.14;55.40;99756.88;10340034;28;20155;-63
2022/03/29 06:22:25;;;;;;;29.92;22.45;;;;;;;12.14;55.63;99758.72;10342570;28;20512;-63
2022/03/29 06:27:27;;;;;;;28.77;22.65;;;;;;;12.41;55.28;99759.75;10339465;28;20461;-61
2022/03/29 06:32:29;;;;;;;30.95;23.70;;;;;;;12.43;54.16;99752.41;10342570;28;20080;-62
2022/03/29 06:37:30;;;;;;;23.52;19.98;;;;;;;12.60;53.46;99769.50;10335289;28;20053;-62
2022/03/29 06:42:32;;;;;;;28.38;21.90;;;;;;;12.55;54.51;99773.44;10339844;28;20057;-62
2022/03/29 06:47:33;;;;;;;25.25;21.67;;;;;;;12.22;55.08;99779.34;10340036;28;21066;-63
2022/03/29 06:52:39;;;;;;;27.80;22.27;;;;;;;12.38;55.15;99776.88;10337653;28;20537;-61
2022/03/29 06:57:41;;;;;;;26.88;21.08;;;;;;;12.63;54.16;99778.03;10333519;28;20054;-61
2022/03/29 07:02:43;;;;;;;24.42;20.75;;;;;;;12.86;53.39;99769.63;10341452;28;20531;-61
2022/03/29 07:07:45;;;;;;;26.77;20.65;;;;;;;13.08;52.92;99768.34;10338887;28;20076;-61
2022/03/29 07:12:52;;;;;;;26.50;20.35;;;;;;;12.85;52.21;99746.56;10336505;28;20247;-62
2022/03/29 07:17:54;;;;;;;28.23;20.48;;;;;;;13.00;52.32;99761.09;10337074;28;20148;-61
2022/03/29 07:22:56;;;;;;;23.70;19.13;;;;;;;13.13;51.59;99744.69;10342801;28;20082;-61
2022/03/29 07:27:58;;;;;;;22.58;18.23;;;;;;;13.35;51.22;99764.78;10346749;28;20065;-61
2022/03/29 07:33:00;;;;;;;25.85;18.73;;;;;;;13.36;51.20;99766.50;10345817;28;20132;-61
2022/03/29 07:38:04;;;;;;;23.00;17.90;;;;;;;13.51;50.31;99763.25;10344242;28;20089;-61
2022/03/29 07:43:06;;;;;;;22.83;17.00;;;;;;;13.46;50.17;99758.38;10344099;28;20064;-61
2022/03/29 07:48:08;;;;;;;22.45;16.95;;;;;;;13.60;49.62;99768.53;10346662;28;20053;-61
2022/03/29 07:53:29;;;;;;;21.48;17.27;;;;;;;13.68;49.95;99772.25;10343247;28;20073;-61
2022/03/29 07:58:31;;;;;;;23.13;16.95;;;;;;;13.90;49.28;99773.56;10339209;28;20060;-62
2022/03/29 08:03:33;;;;;;;20.05;16.15;;;;;;;13.95;49.23;99757.91;10344330;28;20395;-61
2022/03/29 08:08:35;;;;;;;23.10;18.02;;;;;;;14.07;48.65;99775.38;10344521;28;20223;-62
2022/03/29 08:13:37;;;;;;;19.75;16.92;;;;;;;14.10;48.61;99768.88;10347330;28;20075;-64
2022/03/29 08:18:39;;;;;;;19.35;16.92;;;;;;;14.29;47.84;99770.47;10345086;28;20073;-61
2022/03/29 08:23:41;;;;;;;22.48;17.05;;;;;;;14.23;48.01;99774.63;10347298;28;21649;-59
2022/03/29 08:28:42;;;;;;;21.23;18.23;;;;;;;14.33;48.08;99769.16;10345958;28;20071;-61
2022/03/29 08:33:43;;;;;;;20.98;17.65;;;;;;;14.47;47.81;99779.28;10344547;28;20046;-60
2022/03/29 08:38:45;;;;;;;21.02;17.05;;;;;;;14.58;47.65;99780.00;10342049;28;20056;-60
2022/03/29 08:43:48;;;;;;;20.05;16.95;;;;;;;14.72;47.26;99757.97;10342863;28;20721;-60
2022/03/29 08:48:50;;;;;;;25.65;16.13;;;;;;;14.92;46.67;99752.31;10340727;28;20053;-61
2022/03/29 08:53:51;;;;;;;18.85;16.27;;;;;;;14.93;45.97;99752.16;10338646;28;20045;-62
2022/03/29 08:58:53;;;;;;;18.75;16.23;;;;;;;14.88;46.22;99761.69;10341354;28;20053;-61
2022/03/29 09:04:11;;;;;;;20.95;16.10;;;;;;;14.98;45.61;99757.00;10338034;28;20137;-60
2022/03/29 09:09:22;;;;;;;19.25;17.10;;;;;;;15.17;45.64;99747.84;10342358;28;20060;-60
2022/03/29 09:14:28;;;;;;;17.08;15.23;;;;;;;15.38;45.11;99744.69;10354638;28;20124;-63
2022/03/29 09:19:48;;;;;;;17.52;15.68;;;;;;;15.78;44.46;99751.06;10361761;28;20164;-63
2022/03/29 09:24:55;;;;;;;20.90;16.45;;;;;;;16.40;43.16;99755.78;10344122;28;20101;-63
2022/03/29 09:30:09;;;;;;;21.55;16.50;;;;;;;16.48;42.14;99752.22;10338425;28;20050;-62
2022/03/29 09:35:14;;;;;;;17.30;15.43;;;;;;;16.63;41.83;99743.44;10333980;28;20180;-62
2022/03/29 09:40:16;;;;;;;19.65;16.00;;;;;;;16.65;41.43;99723.44;10341298;28;20095;-60
2022/03/29 09:45:37;;;;;;;20.20;16.65;;;;;;;17.11;40.64;99728.91;10338556;28;20061;-61
2022/03/29 09:50:39;;;;;;;20.70;17.92;;;;;;;17.31;39.65;99720.34;10343310;28;20385;-62
2022/03/29 09:55:40;;;;;;;20.88;16.35;;;;;;;17.56;39.35;99720.13;10340089;28;20518;-60
2022/03/29 10:00:43;;;;;;;18.45;15.23;;;;;;;17.89;37.53;99712.59;10337433;28;20167;-60
2022/03/29 10:05:49;;;;;;;15.27;13.17;;;;;;;17.98;36.93;99695.31;10340698;28;20061;-60
2022/03/29 10:10:50;;;;;;;17.45;13.25;;;;;;;18.37;36.58;99685.28;10338686;28;20183;-59
2022/03/29 10:15:54;;;;;;;15.90;14.20;;;;;;;18.87;34.92;99686.31;10335628;28;20195;-60
2022/03/29 10:20:57;;;;;;;14.48;12.90;;;;;;;19.00;34.60;99669.41;10338376;28;20045;-59
2022/03/29 10:26:00;;;;;;;15.63;14.02;;;;;;;19.03;34.49;99657.41;10335857;28;20176;-64
2022/03/29 10:31:02;;;;;;;13.50;12.03;;;;;;;19.37;34.65;99650.44;10340079;28;20063;-60
2022/03/29 10:36:12;;;;;;;15.82;13.60;;;;;;;19.45;34.87;99644.88;10336912;28;20569;-61
2022/03/29 10:41:26;;;;;;;15.93;13.93;;;;;;;19.36;34.36;99636.09;10337284;28;20885;-62
2022/03/29 10:46:36;;;;;;;13.00;11.68;;;;;;;19.45;34.32;99644.88;10339734;28;20840;-60
2022/03/29 10:51:38;;;;;;;13.70;11.18;;;;;;;20.03;33.37;99630.34;10339584;28;20049;-60
2022/03/29 10:57:06;;;;;;;14.07;11.95;;;;;;;20.89;31.69;99637.06;10338075;28;20049;-61
2022/03/29 11:02:13;;;;;;;14.00;11.77;;;;;;;21.09;30.62;99629.81;10336625;28;20049;-61
2022/03/29 11:07:15;;;;;;;16.65;12.75;;;;;;;21.54;30.08;99623.75;10337933;28;20436;-60
2022/03/29 11:12:57;;;;;;;14.55;12.98;;;;;;;22.09;29.61;99599.03;10340038;28;20172;-60
2022/03/29 11:18:01;;;;;;;11.48;10.27;;;;;;;22.94;27.09;99593.34;10267195;28;20054;-62
2022/03/29 11:23:07;;;;;;;;;;;;;;;23.29;26.09;99587.41;10326641;28;20049;-60
2022/03/29 11:28:12;;;;;;;12.80;10.85;;;;;;;24.32;25.07;99581.47;10337072;28;19930;-61
2022/03/29 11:33:13;;;;;;;13.30;10.85;;;;;;;24.70;25.55;99562.09;10336730;28;20617;-61
2022/03/29 11:38:16;;;;;;;15.20;11.50;;;;;;;24.52;25.22;99554.81;10341688;28;20064;-61
2022/03/29 11:43:22;;;;;;;11.77;10.32;;;;;;;24.55;24.53;99552.72;10339209;28;20061;-61
2022/03/29 11:48:26;;;;;;;10.27;9.25;;;;;;;25.70;24.04;99548.66;10341278;28;20120;-60
2022/03/29 11:53:30;;;;;;;11.05;8.63;;;;;;;24.67;23.34;99538.09;10341695;28;20580;-61
2022/03/29 11:58:33;;;;;;;12.85;8.52;;;;;;;24.51;23.37;99530.56;10342476;28;20136;-61
2022/03/29 12:03:36;;;;;;;9.95;8.82;;;;;;;24.92;23.30;99515.28;10339040;28;20050;-65
2022/03/29 12:09:01;;;;;;;10.18;8.60;;;;;;;25.11;23.21;99516.00;10342275;28;20107;-60
2022/03/29 12:14:11;;;;;;;10.00;8.80;;;;;;;24.93;22.95;99494.34;10344997;28;20496;-61
2022/03/29 12:19:17;;;;;;;10.27;7.47;;;;;;;24.72;23.06;99487.59;10345286;28;20049;-61
2022/03/29 12:24:19;;;;;;;10.93;7.80;;;;;;;24.70;22.48;99477.75;10347534;28;20337;-61
2022/03/29 12:29:24;;;;;;;8.45;7.53;;;;;;;24.62;22.65;99461.78;10346872;28;20054;-61
2022/03/29 12:34:28;;;;;;;13.43;9.60;;;;;;;24.33;24.20;99467.00;10348075;28;20107;-60
2022/03/29 12:39:35;;;;;;;12.25;9.15;;;;;;;23.92;24.67;99456.97;10344832;28;20049;-61
2022/03/29 12:44:47;;;;;;;12.82;9.73;;;;;;;22.86;26.14;99433.50;10346428;28;20052;-62
2022/03/29 12:49:49;;;;;;;11.27;9.50;;;;;;;22.04;26.88;99447.94;10351942;28;20141;-63
2022/03/29 12:54:53;;;;;;;10.88;9.82;;;;;;;21.55;27.99;99449.44;10348614;28;20698;-64
2022/03/29 13:00:18;;;;;;;12.63;9.80;;;;;;;21.24;28.54;99447.44;10341661;28;20192;-62
2022/03/29 13:05:19;;;;;;;12.20;9.57;;;;;;;20.69;29.06;99426.97;10344760;28;20670;-62
2022/03/29 13:10:34;;;;;;;10.73;8.80;;;;;;;20.36;29.54;99414.25;10340742;28;20437;-62
2022/03/29 13:15:41;;;;;;;12.80;8.95;;;;;;;20.26;29.64;99408.44;10336336;28;20053;-64
2022/03/29 13:20:43;;;;;;;13.60;9.77;;;;;;;20.11;30.01;99401.34;10339209;28;20059;-61
2022/03/29 13:25:44;;;;;;;19.60;9.48;;;;;;;19.70;30.21;99364.50;10346159;28;20079;-64
2022/03/29 13:30:46;;;;;;;11.48;8.98;;;;;;;19.36;30.64;99333.06;10342802;28;20288;-59
2022/03/29 13:35:52;;;;;;;12.00;8.60;;;;;;;19.63;30.71;99370.94;10342993;28;20501;-60
2022/03/29 13:40:54;;;;;;;12.55;8.10;;;;;;;19.56;30.69;99362.78;10339117;28;20050;-60
2022/03/29 13:45:55;;;;;;;8.82;7.80;;;;;;;19.25;31.20;99315.59;10340409;28;20053;-62
2022/03/29 13:50:59;;;;;;;8.68;7.80;;;;;;;19.46;30.91;99343.50;10337807;28;20230;-60
2022/03/29 13:56:01;;;;;;;9.65;7.93;;;;;;;19.50;31.24;99333.94;10339686;28;20049;-60
2022/03/29 14:01:04;;;;;;;11.82;8.75;;;;;;;19.43;31.52;99328.53;10336667;28;20689;-60
2022/03/29 14:06:05;;;;;;;12.82;8.43;;;;;;;19.38;31.57;99331.84;10337769;28;20420;-61
2022/03/29 14:11:08;;;;;;;9.73;8.80;;;;;;;19.18;32.26;99315.56;10339570;28;20180;-60
2022/03/29 14:16:10;;;;;;;9.57;8.45;;;;;;;18.84;32.18;99289.47;10333467;28;20749;-60
2022/03/29 14:21:12;;;;;;;9.70;8.77;;;;;;;19.04;31.90;99312.00;10337193;28;20104;-60
2022/03/29 14:26:13;;;;;;;8.90;7.80;;;;;;;19.12;32.20;99311.00;10335724;28;20045;-60
2022/03/29 14:31:16;;;;;;;9.02;7.43;;;;;;;18.83;31.68;99261.69;10337503;28;20750;-60
2022/03/29 14:36:18;;;;;;;7.28;6.32;;;;;;;19.14;31.74;99298.16;10334352;28;20060;-60
2022/03/29 14:41:21;;;;;;;8.48;7.32;;;;;;;19.03;31.32;99299.53;10333911;28;20140;-59
2022/03/29 14:46:23;;;;;;;8.07;6.75;;;;;;;18.94;30.99;99303.44;10336419;28;20049;-62
2022/03/29 14:51:25;;;;;;;8.88;5.97;;;;;;;18.90;31.22;99299.53;10332260;28;20069;-61
2022/03/29 14:56:27;;;;;;;7.30;5.75;;;;;;;18.75;31.57;99286.16;10336395;28;20130;-61
2022/03/29 15:01:28;;;;;;;9.27;6.93;;;;;;;18.65;31.80;99294.59;10333447;28;20811;-62
2022/03/29 15:06:30;;;;;;;8.32;7.07;;;;;;;18.55;32.27;99299.50;10333517;28;20060;-62
2022/03/29 15:11:32;;;;;;;7.15;6.45;;;;;;;18.43;32.49;99291.13;10339212;28;20083;-61
2022/03/29 15:16:34;;;;;;;8.05;6.50;;;;;;;18.04;33.00;99222.53;10343186;28;20042;-61
2022/03/29 15:21:56;;;;;;;9.23;8.07;;;;;;;18.20;33.25;99256.41;10335287;28;20653;-61
2022/03/29 15:26:58;;;;;;;10.82;8.90;;;;;;;18.20;33.62;99259.09;10339526;28;20061;-61
2022/03/29 15:31:59;;;;;;;9.18;7.20;;;;;;;18.06;33.66;99260.88;10335412;28;20706;-61
2022/03/29 15:37:09;;;;;;;7.30;6.18;;;;;;;17.96;33.76;99266.59;10336604;28;20050;-60
2022/03/29 15:42:11;;;;;;;11.90;8.98;;;;;;;17.77;33.71;99226.88;10346277;28;20479;-59
2022/03/29 15:47:14;;;;;;;8.65;6.45;;;;;;;17.89;33.73;99254.94;10347120;28;20743;-60
2022/03/29 15:52:17;;;;;;;7.80;6.60;;;;;;;17.87;33.71;99248.91;10343724;28;19925;-60
2022/03/29 15:57:21;;;;;;;8.18;6.75;;;;;;;17.66;34.11;99253.28;10350727;28;20056;-59
2022/03/29 16:02:23;;;;;;;7.88;6.90;;;;;;;17.59;34.82;99236.25;10342952;28;20132;-59
2022/03/29 16:07:24;;;;;;;10.48;7.65;;;;;;;17.68;34.85;99239.63;10347764;28;20253;-60
2022/03/29 16:12:26;;;;;;;8.25;6.63;;;;;;;17.74;34.75;99228.06;10361711;28;20049;-60
2022/03/29 16:17:27;;;;;;;9.88;7.55;;;;;;;17.51;34.90;99200.59;10345269;28;20046;-61
2022/03/29 16:22:29;;;;;;;10.40;7.43;;;;;;;17.45;35.26;99211.09;10342412;28;20049;-60
2022/03/29 16:27:31;;;;;;;11.30;8.80;;;;;;;17.41;35.74;99217.06;10341738;28;20061;-60
2022/03/29 16:32:33;;;;;;;9.02;7.70;;;;;;;17.37;35.89;99200.47;10341966;28;20048;-60
2022/03/29 16:37:35;;;;;;;9.32;7.68;;;;;;;17.37;36.18;99202.31;10340322;28;20140;-61
2022/03/29 16:42:37;;;;;;;9.43;7.43;;;;;;;17.30;35.55;99189.66;10340292;28;20053;-61
2022/03/29 16:47:39;;;;;;;9.18;6.45;;;;;;;17.15;35.40;99180.81;10339059;28;20140;-61
2022/03/29 16:52:40;;;;;;;8.30;5.88;;;;;;;17.10;35.83;99194.03;10334045;28;20057;-61
2022/03/29 16:57:42;;;;;;;6.82;5.45;;;;;;;17.17;35.17;99177.94;10343448;28;20065;-61
2022/03/29 17:02:43;;;;;;;6.75;6.05;;;;;;;17.13;35.21;99172.13;10343816;28;20061;-61
2022/03/29 17:07:45;;;;;;;7.20;4.65;;;;;;;16.57;34.54;99105.56;10340347;28;20963;-61
2022/03/29 17:12:47;;;;;;;4.50;3.50;;;;;;;16.87;34.75;99167.31;10342854;28;20054;-60
2022/03/29 17:17:49;;;;;;;4.68;3.33;;;;;;;16.80;34.70;99177.97;10343796;28;20103;-60
2022/03/29 17:22:50;;;;;;;5.68;2.92;;;;;;;16.60;34.81;99167.84;10341060;28;20099;-61
2022/03/29 17:27:53;;;;;;;7.05;3.45;;;;;;;16.57;35.22;99168.22;10341123;28;20049;-63
2022/03/29 17:32:55;;;;;;;5.25;3.83;;;;;;;16.52;35.50;99170.63;10337774;28;20045;-62
2022/03/29 17:37:57;;;;;;;4.85;2.97;;;;;;;16.42;35.97;99159.31;10334246;28;20406;-61
2022/03/29 17:42:58;;;;;;;6.45;4.65;;;;;;;16.33;36.87;99172.03;10335899;28;20046;-61
2022/03/29 17:48:00;;;;;;;6.18;4.80;;;;;;;16.25;37.03;99164.09;10339349;28;20049;-62
2022/03/29 17:53:02;;;;;;;5.53;4.47;;;;;;;16.17;37.42;99161.47;10342453;28;20095;-63
2022/03/29 17:58:04;;;;;;;5.15;4.43;;;;;;;16.11;37.76;99156.88;10341374;28;20495;-62
2022/03/29 18:03:06;;;;;;;5.07;3.75;;;;;;;16.06;37.89;99149.38;10336804;28;20076;-62
2022/03/29 18:08:08;;;;;;;6.85;4.95;;;;;;;16.00;38.28;99147.44;10338017;28;20054;-63
2022/03/29 18:13:10;;;;;;;6.22;4.60;;;;;;;16.01;38.78;99149.13;10338644;28;20653;-62
2022/03/29 18:18:12;;;;;;;6.22;3.90;;;;;;;15.95;38.88;99144.50;10337162;28;20049;-62
2022/03/29 18:23:13;;;;;;;7.28;4.82;;;;;;;15.90;39.32;99155.78;10338235;28;20057;-61
2022/03/29 18:28:15;;;;;;;9.57;5.97;;;;;;;15.87;39.31;99150.78;10335990;28;20615;-60
2022/03/29 18:33:19;;;;;;;8.77;5.90;;;;;;;15.65;39.61;99120.31;10336968;28;20110;-61
2022/03/29 18:38:21;;;;;;;8.50;4.95;;;;;;;15.78;39.77;99154.53;10336105;28;20049;-61
2022/03/29 18:43:22;;;;;;;7.20;4.88;;;;;;;15.68;39.81;99154.81;10333529;28;20509;-62
2022/03/29 18:48:25;;;;;;;7.28;4.65;;;;;;;15.66;39.63;99155.00;10334032;28;20516;-61
2022/03/29 18:53:28;;;;;;;6.35;4.75;;;;;;;15.52;40.35;99153.97;10339964;28;20045;-62
2022/03/29 18:58:30;;;;;;;6.65;4.70;;;;;;;15.48;40.63;99157.19;10335276;28;20060;-62
2022/03/29 19:03:31;;;;;;;7.38;4.78;;;;;;;15.24;41.12;99118.00;10334607;28;20050;-61
2022/03/29 19:08:33;;;;;;;5.78;3.80;;;;;;;15.23;41.60;99113.69;10333398;28;20049;-62
2022/03/29 19:13:34;;;;;;;5.68;4.43;;;;;;;15.43;42.26;99154.19;10338570;28;20111;-62
2022/03/29 19:18:36;;;;;;;9.48;4.97;;;;;;;15.26;42.39;99151.66;10347877;28;20060;-61
2022/03/29 19:23:40;;;;;;;8.45;4.75;;;;;;;15.33;43.07;99149.13;10349217;28;20144;-62
2022/03/29 19:28:42;;;;;;;7.63;5.40;;;;;;;15.29;42.91;99150.47;10343855;28;20103;-62
2022/03/29 19:33:43;;;;;;;6.18;5.57;;;;;;;15.39;43.15;99153.75;10342776;28;20497;-62
2022/03/29 19:39:41;;;;;;;7.05;4.97;;;;;;;15.38;43.38;99157.44;10341862;28;20587;-64
2022/03/29 19:44:45;;;;;;;6.80;5.55;;;;;;;14.92;43.57;99125.31;10333505;28;20899;-62
2022/03/29 19:49:48;;;;;;;6.88;5.38;;;;;;;15.07;44.07;99150.31;10343686;28;20041;-63
2022/03/29 19:54:52;;;;;;;8.73;5.90;;;;;;;15.00;44.25;99154.75;10349494;28;20977;-63
2022/03/29 19:59:54;;;;;;;9.30;6.35;;;;;;;14.92;44.13;99155.63;10347820;28;20077;-62
2022/03/29 20:04:57;;;;;;;10.10;8.27;;;;;;;14.50;44.70;99149.66;10345036;28;20874;-61
2022/03/29 20:10:00;;;;;;;10.73;8.30;;;;;;;14.56;43.77;99149.97;10342224;28;20055;-60
2022/03/29 20:15:03;;;;;;;11.68;8.15;;;;;;;14.43;42.81;99143.34;10344425;28;20440;-60
2022/03/29 20:20:06;;;;;;;8.30;7.45;;;;;;;14.36;42.93;99147.72;10345599;28;20680;-62
2022/03/29 20:25:09;;;;;;;8.73;7.80;;;;;;;14.31;42.32;99134.03;10346887;28;20059;-61
2022/03/29 20:30:11;;;;;;;9.70;7.45;;;;;;;14.31;42.28;99134.03;10341730;28;20064;-67
2022/03/29 20:35:15;;;;;;;9.85;8.02;;;;;;;14.25;42.46;99134.75;10316002;28;20060;-61
2022/03/29 20:40:17;;;;;;;9.98;8.43;;;;;;;14.07;42.40;99111.72;10337423;28;20501;-61
2022/03/29 20:45:18;;;;;;;8.52;6.55;;;;;;;13.99;43.48;99135.00;10337647;28;20057;-63
2022/03/29 20:50:20;;;;;;;8.65;7.03;;;;;;;14.07;42.96;99124.28;10344076;28;20058;-61
2022/03/29 20:55:21;;;;;;;8.52;6.97;;;;;;;14.03;42.45;99121.09;10339339;28;20058;-62
2022/03/29 21:00:23;;;;;;;9.50;7.38;;;;;;;13.79;42.26;99082.72;10339112;28;20041;-61
2022/03/29 21:05:25;;;;;;;10.65;7.47;;;;;;;13.83;41.54;99117.19;10341800;28;20517;-60
2022/03/29 21:10:28;;;;;;;9.27;7.07;;;;;;;13.39;42.18;99081.88;10339314;28;20148;-61
2022/03/29 21:15:31;;;;;;;13.23;8.02;;;;;;;13.38;42.00;99109.59;10339585;28;20496;-61
2022/03/29 21:20:35;;;;;;;15.33;9.13;;;;;;;13.15;43.05;99109.44;10337255;28;20041;-60
2022/03/29 21:25:38;;;;;;;12.38;8.70;;;;;;;13.16;43.00;99103.06;10338880;28;20046;-61
2022/03/29 21:30:41;;;;;;;11.38;9.27;;;;;;;13.20;42.51;99092.91;10339365;28;20058;-60
2022/03/29 21:35:43;;;;;;;12.75;9.25;;;;;;;13.21;42.80;99094.53;10335281;28;20057;-61
2022/03/29 21:40:45;;;;;;;12.57;9.55;;;;;;;13.26;42.63;99102.91;10340322;28;20073;-61
2022/03/29 21:45:47;;;;;;;11.55;8.95;;;;;;;13.09;43.21;99100.25;10337304;28;20703;-61
2022/03/29 21:50:50;;;;;;;13.43;9.73;;;;;;;13.15;43.46;99097.88;10337323;28;20586;-61
2022/03/29 21:55:52;;;;;;;10.50;9.15;;;;;;;12.56;43.82;99061.50;10336867;28;20072;-61
2022/03/29 22:00:57;;;;;;;11.93;10.63;;;;;;;12.94;43.96;99093.91;10342825;28;20052;-61
2022/03/29 22:05:59;;;;;;;13.32;10.15;;;;;;;12.58;44.48;99099.56;10335338;28;20534;-62
2022/03/29 22:11:00;;;;;;;10.98;9.80;;;;;;;12.50;44.78;99099.53;10336486;28;20052;-61
2022/03/29 22:16:02;;;;;;;11.75;10.55;;;;;;;12.70;44.57;99114.25;10354079;28;20077;-62
2022/03/29 22:21:06;;;;;;;11.63;9.85;;;;;;;12.69;44.10;99085.88;10350054;28;20160;-61
2022/03/29 22:26:08;;;;;;;11.40;10.20;;;;;;;12.30;44.53;99051.81;10354354;28;20117;-61
2022/03/29 22:31:10;;;;;;;12.07;10.00;;;;;;;12.68;44.46;99094.88;10352156;28;20117;-64
2022/03/29 22:36:11;;;;;;;12.10;9.40;;;;;;;12.60;44.60;99100.22;10354717;28;20053;-62
2022/03/29 22:41:13;;;;;;;12.07;9.82;;;;;;;12.29;44.83;99050.13;10355309;28;20053;-61
2022/03/29 22:46:14;;;;;;;12.75;11.15;;;;;;;12.69;44.48;99082.38;10352629;28;20048;-61
2022/03/29 22:51:16;;;;;;;16.58;10.52;;;;;;;12.81;44.31;99088.25;10351619;28;20161;-61
2022/03/29 23:01:37;;;;;;;14.95;11.90;;;;;;;12.76;44.13;99090.56;10352140;28;20188;-61
2022/03/29 23:06:39;;;;;;;14.25;12.60;;;;;;;12.48;44.52;99045.50;10352288;28;20717;-61
2022/03/29 23:11:40;;;;;;;14.77;11.80;;;;;;;12.68;44.29;99070.84;10350173;28;20123;-61
2022/03/29 23:16:42;;;;;;;18.60;13.95;;;;;;;12.71;44.29;99083.03;10351474;28;20415;-61
2022/03/29 23:21:44;;;;;;;16.50;14.52;;;;;;;12.57;45.01;99087.22;10352481;28;20568;-63